sensor_id;sensor_type;location;lat;lon;timestamp;P1;durP1;ratioP1;P2;durP2;ratioP2
47760;SDS011;33524;55.434;38.520;2023-04-01T00:01:00;16.55;;;8.23;;
47760;SDS011;33524;55.434;38.520;2023-04-01T00:03:33;13.95;;;6.97;;
47760;SDS011;33524;55.434;38.520;2023-04-01T00:06:04;15.02;;;9.23;;
47760;SDS011;33524;55.434;38.520;2023-04-01T00:08:37;14.50;;;8.32;;
47760;SDS011;33524;55.434;38.520;2023-04-01T00:11:10;17.33;;;9.18;;
47760;SDS011;33524;55.434;38.520;2023-04-01T00:13:43;18.27;;;8.27;;
47760;SDS011;33524;55.434;38.520;2023-04-01T00:16:15;17.52;;;8.55;;
47760;SDS011;33524;55.434;38.520;2023-04-01T00:18:50;16.52;;;8.23;;
47760;SDS011;33524;55.434;38.520;2023-04-01T00:21:22;16.52;;;9.32;;
47760;SDS011;33524;55.434;38.520;2023-04-01T00:23:53;14.68;;;8.50;;
47760;SDS011;33524;55.434;38.520;2023-04-01T00:26:24;18.08;;;8.60;;
47760;SDS011;33524;55.434;38.520;2023-04-01T00:28:58;15.38;;;8.77;;
47760;SDS011;33524;55.434;38.520;2023-04-01T00:31:30;17.17;;;8.00;;
47760;SDS011;33524;55.434;38.520;2023-04-01T00:34:02;17.77;;;9.02;;
47760;SDS011;33524;55.434;38.520;2023-04-01T00:36:34;18.17;;;8.55;;
47760;SDS011;33524;55.434;38.520;2023-04-01T00:39:06;19.85;;;10.07;;
47760;SDS011;33524;55.434;38.520;2023-04-01T00:41:39;16.50;;;9.20;;
47760;SDS011;33524;55.434;38.520;2023-04-01T00:44:16;16.90;;;8.18;;
47760;SDS011;33524;55.434;38.520;2023-04-01T00:46:52;18.17;;;9.68;;
47760;SDS011;33524;55.434;38.520;2023-04-01T00:49:27;18.37;;;10.20;;
47760;SDS011;33524;55.434;38.520;2023-04-01T00:52:02;21.60;;;10.07;;
47760;SDS011;33524;55.434;38.520;2023-04-01T00:54:38;21.25;;;11.00;;
47760;SDS011;33524;55.434;38.520;2023-04-01T00:57:32;18.58;;;9.20;;
47760;SDS011;33524;55.434;38.520;2023-04-01T01:00:09;18.55;;;9.45;;
47760;SDS011;33524;55.434;38.520;2023-04-01T01:02:44;16.40;;;8.55;;
47760;SDS011;33524;55.434;38.520;2023-04-01T01:05:18;17.85;;;9.18;;
47760;SDS011;33524;55.434;38.520;2023-04-01T01:08:01;15.98;;;9.35;;
47760;SDS011;33524;55.434;38.520;2023-04-01T01:10:40;20.70;;;10.50;;
47760;SDS011;33524;55.434;38.520;2023-04-01T01:13:22;20.23;;;9.80;;
47760;SDS011;33524;55.434;38.520;2023-04-01T01:16:21;21.05;;;10.55;;
47760;SDS011;33524;55.434;38.520;2023-04-01T01:21:49;19.95;;;10.45;;
47760;SDS011;33524;55.434;38.520;2023-04-01T01:27:07;20.08;;;11.07;;
47760;SDS011;33524;55.434;38.520;2023-04-01T01:29:48;18.80;;;9.25;;
47760;SDS011;33524;55.434;38.520;2023-04-01T01:38:13;22.02;;;10.88;;
47760;SDS011;33524;55.434;38.520;2023-04-01T01:40:48;18.52;;;9.40;;
47760;SDS011;33524;55.434;38.520;2023-04-01T01:43:25;20.90;;;9.77;;
47760;SDS011;33524;55.434;38.520;2023-04-01T01:46:01;22.13;;;10.32;;
47760;SDS011;33524;55.434;38.520;2023-04-01T01:48:39;21.33;;;10.65;;
47760;SDS011;33524;55.434;38.520;2023-04-01T01:51:13;22.33;;;11.23;;
47760;SDS011;33524;55.434;38.520;2023-04-01T01:53:46;21.23;;;9.63;;
47760;SDS011;33524;55.434;38.520;2023-04-01T01:56:19;20.80;;;11.25;;
47760;SDS011;33524;55.434;38.520;2023-04-01T01:59:00;23.00;;;10.48;;
47760;SDS011;33524;55.434;38.520;2023-04-01T02:01:38;22.17;;;10.20;;
47760;SDS011;33524;55.434;38.520;2023-04-01T02:04:15;23.45;;;11.27;;
47760;SDS011;33524;55.434;38.520;2023-04-01T02:06:53;20.65;;;10.32;;
47760;SDS011;33524;55.434;38.520;2023-04-01T02:09:29;20.65;;;9.90;;
47760;SDS011;33524;55.434;38.520;2023-04-01T02:12:04;21.85;;;10.60;;
47760;SDS011;33524;55.434;38.520;2023-04-01T02:14:57;20.27;;;10.13;;
47760;SDS011;33524;55.434;38.520;2023-04-01T02:20:23;18.50;;;10.07;;
47760;SDS011;33524;55.434;38.520;2023-04-01T02:22:58;20.85;;;11.07;;
47760;SDS011;33524;55.434;38.520;2023-04-01T02:25:30;20.15;;;10.35;;
47760;SDS011;33524;55.434;38.520;2023-04-01T02:28:06;18.95;;;10.20;;
47760;SDS011;33524;55.434;38.520;2023-04-01T02:30:39;19.90;;;9.43;;
47760;SDS011;33524;55.434;38.520;2023-04-01T02:33:12;22.13;;;10.77;;
47760;SDS011;33524;55.434;38.520;2023-04-01T02:35:43;21.67;;;10.98;;
47760;SDS011;33524;55.434;38.520;2023-04-01T02:38:15;21.70;;;10.02;;
47760;SDS011;33524;55.434;38.520;2023-04-01T02:40:47;25.08;;;12.23;;
47760;SDS011;33524;55.434;38.520;2023-04-01T02:43:21;19.50;;;8.98;;
47760;SDS011;33524;55.434;38.520;2023-04-01T02:45:53;20.10;;;10.68;;
47760;SDS011;33524;55.434;38.520;2023-04-01T02:48:25;22.10;;;10.55;;
47760;SDS011;33524;55.434;38.520;2023-04-01T02:50:56;21.00;;;11.52;;
47760;SDS011;33524;55.434;38.520;2023-04-01T02:53:28;21.30;;;10.07;;
47760;SDS011;33524;55.434;38.520;2023-04-01T02:56:00;18.83;;;10.07;;
47760;SDS011;33524;55.434;38.520;2023-04-01T02:58:32;20.30;;;9.55;;
47760;SDS011;33524;55.434;38.520;2023-04-01T03:01:05;17.77;;;9.52;;
47760;SDS011;33524;55.434;38.520;2023-04-01T03:06:08;18.17;;;10.23;;
47760;SDS011;33524;55.434;38.520;2023-04-01T03:08:41;21.87;;;9.43;;
47760;SDS011;33524;55.434;38.520;2023-04-01T03:11:13;19.90;;;10.38;;
47760;SDS011;33524;55.434;38.520;2023-04-01T03:13:44;19.48;;;10.60;;
47760;SDS011;33524;55.434;38.520;2023-04-01T03:16:16;17.17;;;8.80;;
47760;SDS011;33524;55.434;38.520;2023-04-01T03:18:50;20.90;;;10.07;;
47760;SDS011;33524;55.434;38.520;2023-04-01T03:21:23;21.12;;;10.23;;
47760;SDS011;33524;55.434;38.520;2023-04-01T03:23:54;19.15;;;10.07;;
47760;SDS011;33524;55.434;38.520;2023-04-01T03:26:25;22.23;;;10.30;;
47760;SDS011;33524;55.434;38.520;2023-04-01T03:28:57;18.87;;;10.15;;
47760;SDS011;33524;55.434;38.520;2023-04-01T03:31:30;19.77;;;9.75;;
47760;SDS011;33524;55.434;38.520;2023-04-01T03:34:01;21.87;;;10.35;;
47760;SDS011;33524;55.434;38.520;2023-04-01T03:36:33;19.08;;;9.68;;
47760;SDS011;33524;55.434;38.520;2023-04-01T03:39:04;17.02;;;8.63;;
47760;SDS011;33524;55.434;38.520;2023-04-01T03:41:37;19.60;;;9.57;;
47760;SDS011;33524;55.434;38.520;2023-04-01T03:44:09;17.90;;;9.63;;
47760;SDS011;33524;55.434;38.520;2023-04-01T03:46:43;19.80;;;10.35;;
47760;SDS011;33524;55.434;38.520;2023-04-01T03:49:15;20.75;;;10.80;;
47760;SDS011;33524;55.434;38.520;2023-04-01T03:51:47;19.15;;;9.52;;
47760;SDS011;33524;55.434;38.520;2023-04-01T03:54:19;20.70;;;9.40;;
47760;SDS011;33524;55.434;38.520;2023-04-01T03:56:51;20.35;;;9.73;;
47760;SDS011;33524;55.434;38.520;2023-04-01T04:01:55;18.10;;;10.15;;
47760;SDS011;33524;55.434;38.520;2023-04-01T04:04:28;17.37;;;8.40;;
47760;SDS011;33524;55.434;38.520;2023-04-01T04:07:00;15.75;;;8.60;;
47760;SDS011;33524;55.434;38.520;2023-04-01T04:09:34;19.73;;;9.77;;
47760;SDS011;33524;55.434;38.520;2023-04-01T04:12:06;21.95;;;11.45;;
47760;SDS011;33524;55.434;38.520;2023-04-01T04:14:38;14.68;;;8.55;;
47760;SDS011;33524;55.434;38.520;2023-04-01T04:17:10;23.00;;;9.30;;
47760;SDS011;33524;55.434;38.520;2023-04-01T04:19:45;17.87;;;10.20;;
47760;SDS011;33524;55.434;38.520;2023-04-01T04:22:18;15.45;;;9.13;;
47760;SDS011;33524;55.434;38.520;2023-04-01T04:24:50;18.10;;;9.13;;
47760;SDS011;33524;55.434;38.520;2023-04-01T04:27:23;17.23;;;8.73;;
47760;SDS011;33524;55.434;38.520;2023-04-01T04:29:55;21.43;;;10.10;;
47760;SDS011;33524;55.434;38.520;2023-04-01T04:34:59;16.65;;;9.25;;
47760;SDS011;33524;55.434;38.520;2023-04-01T04:37:30;16.45;;;9.45;;
47760;SDS011;33524;55.434;38.520;2023-04-01T04:40:02;15.80;;;8.60;;
47760;SDS011;33524;55.434;38.520;2023-04-01T04:45:06;17.60;;;8.25;;
47760;SDS011;33524;55.434;38.520;2023-04-01T04:47:40;15.95;;;7.65;;
47760;SDS011;33524;55.434;38.520;2023-04-01T04:50:14;19.58;;;9.93;;
47760;SDS011;33524;55.434;38.520;2023-04-01T04:52:47;18.05;;;8.43;;
47760;SDS011;33524;55.434;38.520;2023-04-01T04:55:18;18.87;;;10.38;;
47760;SDS011;33524;55.434;38.520;2023-04-01T04:57:50;18.92;;;9.38;;
47760;SDS011;33524;55.434;38.520;2023-04-01T05:00:22;16.92;;;9.45;;
47760;SDS011;33524;55.434;38.520;2023-04-01T05:02:54;17.17;;;8.77;;
47760;SDS011;33524;55.434;38.520;2023-04-01T05:05:27;20.73;;;9.57;;
47760;SDS011;33524;55.434;38.520;2023-04-01T05:07:59;19.37;;;10.48;;
47760;SDS011;33524;55.434;38.520;2023-04-01T05:10:32;17.55;;;9.52;;
47760;SDS011;33524;55.434;38.520;2023-04-01T05:13:03;18.25;;;8.23;;
47760;SDS011;33524;55.434;38.520;2023-04-01T05:15:35;13.90;;;8.18;;
47760;SDS011;33524;55.434;38.520;2023-04-01T05:20:45;16.70;;;8.88;;
47760;SDS011;33524;55.434;38.520;2023-04-01T05:23:22;15.18;;;8.35;;
47760;SDS011;33524;55.434;38.520;2023-04-01T05:25:55;10.82;;;5.55;;
47760;SDS011;33524;55.434;38.520;2023-04-01T05:28:26;14.07;;;6.47;;
47760;SDS011;33524;55.434;38.520;2023-04-01T05:30:59;14.73;;;8.60;;
47760;SDS011;33524;55.434;38.520;2023-04-01T05:33:34;13.48;;;7.25;;
47760;SDS011;33524;55.434;38.520;2023-04-01T05:36:08;13.80;;;7.00;;
47760;SDS011;33524;55.434;38.520;2023-04-01T05:38:42;14.85;;;8.35;;
47760;SDS011;33524;55.434;38.520;2023-04-01T05:41:16;11.05;;;6.50;;
47760;SDS011;33524;55.434;38.520;2023-04-01T05:43:49;15.35;;;7.15;;
47760;SDS011;33524;55.434;38.520;2023-04-01T05:46:23;14.30;;;7.87;;
47760;SDS011;33524;55.434;38.520;2023-04-01T05:48:57;13.85;;;7.30;;
47760;SDS011;33524;55.434;38.520;2023-04-01T05:51:29;15.50;;;8.60;;
47760;SDS011;33524;55.434;38.520;2023-04-01T05:54:04;15.35;;;7.85;;
47760;SDS011;33524;55.434;38.520;2023-04-01T05:56:36;11.07;;;5.72;;
47760;SDS011;33524;55.434;38.520;2023-04-01T05:59:09;10.23;;;5.17;;
47760;SDS011;33524;55.434;38.520;2023-04-01T06:01:42;9.65;;;5.43;;
47760;SDS011;33524;55.434;38.520;2023-04-01T06:04:14;11.57;;;6.78;;
47760;SDS011;33524;55.434;38.520;2023-04-01T06:06:48;14.75;;;6.28;;
47760;SDS011;33524;55.434;38.520;2023-04-01T06:09:26;9.85;;;5.82;;
47760;SDS011;33524;55.434;38.520;2023-04-01T06:12:13;10.30;;;6.03;;
47760;SDS011;33524;55.434;38.520;2023-04-01T06:24:05;9.95;;;5.30;;
47760;SDS011;33524;55.434;38.520;2023-04-01T06:27:06;9.77;;;5.32;;
47760;SDS011;33524;55.434;38.520;2023-04-01T06:29:53;11.32;;;5.87;;
47760;SDS011;33524;55.434;38.520;2023-04-01T06:38:05;4.28;;;2.78;;
47760;SDS011;33524;55.434;38.520;2023-04-01T06:41:04;6.22;;;4.07;;
47760;SDS011;33524;55.434;38.520;2023-04-01T06:46:40;6.68;;;3.83;;
47760;SDS011;33524;55.434;38.520;2023-04-01T06:49:58;3.37;;;2.35;;
47760;SDS011;33524;55.434;38.520;2023-04-01T06:55:56;8.65;;;5.00;;
47760;SDS011;33524;55.434;38.520;2023-04-01T06:58:42;9.20;;;4.35;;
47760;SDS011;33524;55.434;38.520;2023-04-01T07:01:52;6.65;;;4.32;;
47760;SDS011;33524;55.434;38.520;2023-04-01T07:04:14;7.37;;;4.20;;
47760;SDS011;33524;55.434;38.520;2023-04-01T07:09:35;6.93;;;4.37;;
47760;SDS011;33524;55.434;38.520;2023-04-01T07:12:18;8.43;;;4.62;;
47760;SDS011;33524;55.434;38.520;2023-04-01T07:15:17;3.78;;;2.47;;
47760;SDS011;33524;55.434;38.520;2023-04-01T07:17:54;5.65;;;3.90;;
47760;SDS011;33524;55.434;38.520;2023-04-01T07:20:39;6.25;;;3.00;;
47760;SDS011;33524;55.434;38.520;2023-04-01T07:23:16;6.07;;;3.55;;
47760;SDS011;33524;55.434;38.520;2023-04-01T07:25:59;2.37;;;1.65;;
47760;SDS011;33524;55.434;38.520;2023-04-01T07:28:54;5.28;;;2.95;;
47760;SDS011;33524;55.434;38.520;2023-04-01T07:34:23;6.12;;;3.33;;
47760;SDS011;33524;55.434;38.520;2023-04-01T07:37:03;5.07;;;3.12;;
47760;SDS011;33524;55.434;38.520;2023-04-01T07:40:50;4.93;;;2.53;;
47760;SDS011;33524;55.434;38.520;2023-04-01T07:42:50;6.47;;;3.47;;
47760;SDS011;33524;55.434;38.520;2023-04-01T07:45:35;4.37;;;3.03;;
47760;SDS011;33524;55.434;38.520;2023-04-01T07:51:15;5.75;;;3.20;;
47760;SDS011;33524;55.434;38.520;2023-04-01T08:02:35;6.75;;;3.25;;
47760;SDS011;33524;55.434;38.520;2023-04-01T08:05:22;4.70;;;2.95;;
47760;SDS011;33524;55.434;38.520;2023-04-01T08:10:52;5.20;;;3.30;;
47760;SDS011;33524;55.434;38.520;2023-04-01T08:22:10;2.30;;;1.37;;
47760;SDS011;33524;55.434;38.520;2023-04-01T08:24:50;5.15;;;3.67;;
47760;SDS011;33524;55.434;38.520;2023-04-01T08:27:26;4.18;;;3.58;;
47760;SDS011;33524;55.434;38.520;2023-04-01T08:30:15;8.57;;;4.93;;
47760;SDS011;33524;55.434;38.520;2023-04-01T08:32:54;3.87;;;2.47;;
47760;SDS011;33524;55.434;38.520;2023-04-01T08:36:36;4.18;;;2.97;;
47760;SDS011;33524;55.434;38.520;2023-04-01T08:38:29;6.80;;;4.45;;
47760;SDS011;33524;55.434;38.520;2023-04-01T08:41:20;7.43;;;3.67;;
47760;SDS011;33524;55.434;38.520;2023-04-01T08:48:06;5.65;;;3.03;;
47760;SDS011;33524;55.434;38.520;2023-04-01T08:53:46;5.62;;;4.20;;
47760;SDS011;33524;55.434;38.520;2023-04-01T08:56:26;3.67;;;2.12;;
47760;SDS011;33524;55.434;38.520;2023-04-01T08:59:19;4.65;;;3.35;;
47760;SDS011;33524;55.434;38.520;2023-04-01T09:02:23;9.40;;;5.37;;
47760;SDS011;33524;55.434;38.520;2023-04-01T09:13:48;3.67;;;2.62;;
47760;SDS011;33524;55.434;38.520;2023-04-01T09:25:52;7.18;;;3.95;;
47760;SDS011;33524;55.434;38.520;2023-04-01T09:31:32;3.95;;;2.55;;
47760;SDS011;33524;55.434;38.520;2023-04-01T09:37:26;6.32;;;4.03;;
47760;SDS011;33524;55.434;38.520;2023-04-01T09:43:26;7.40;;;3.75;;
47760;SDS011;33524;55.434;38.520;2023-04-01T09:46:10;6.47;;;3.42;;
47760;SDS011;33524;55.434;38.520;2023-04-01T09:52:07;9.73;;;4.07;;
47760;SDS011;33524;55.434;38.520;2023-04-01T10:00:49;8.63;;;4.45;;
47760;SDS011;33524;55.434;38.520;2023-04-01T10:06:21;6.32;;;2.83;;
47760;SDS011;33524;55.434;38.520;2023-04-01T10:18:47;8.13;;;4.37;;
47760;SDS011;33524;55.434;38.520;2023-04-01T10:21:46;8.45;;;4.18;;
47760;SDS011;33524;55.434;38.520;2023-04-01T10:33:53;7.65;;;4.00;;
47760;SDS011;33524;55.434;38.520;2023-04-01T10:36:47;6.22;;;3.80;;
47760;SDS011;33524;55.434;38.520;2023-04-01T10:51:55;6.10;;;3.35;;
47760;SDS011;33524;55.434;38.520;2023-04-01T11:01:09;7.00;;;3.20;;
47760;SDS011;33524;55.434;38.520;2023-04-01T11:10:24;9.98;;;4.97;;
47760;SDS011;33524;55.434;38.520;2023-04-01T11:16:39;6.97;;;3.60;;
47760;SDS011;33524;55.434;38.520;2023-04-01T11:25:54;10.30;;;5.90;;
47760;SDS011;33524;55.434;38.520;2023-04-01T11:31:45;6.35;;;3.58;;
47760;SDS011;33524;55.434;38.520;2023-04-01T11:42:47;10.55;;;5.75;;
47760;SDS011;33524;55.434;38.520;2023-04-01T11:46:10;8.10;;;4.10;;
47760;SDS011;33524;55.434;38.520;2023-04-01T11:49:07;7.65;;;4.85;;
47760;SDS011;33524;55.434;38.520;2023-04-01T11:52:12;7.93;;;4.80;;
47760;SDS011;33524;55.434;38.520;2023-04-01T11:55:14;7.90;;;4.15;;
47760;SDS011;33524;55.434;38.520;2023-04-01T11:58:03;10.07;;;5.72;;
47760;SDS011;33524;55.434;38.520;2023-04-01T12:01:20;8.48;;;4.65;;
47760;SDS011;33524;55.434;38.520;2023-04-01T12:07:18;6.68;;;3.62;;
47760;SDS011;33524;55.434;38.520;2023-04-01T12:13:28;5.40;;;3.47;;
47760;SDS011;33524;55.434;38.520;2023-04-01T12:18:48;8.13;;;4.00;;
47760;SDS011;33524;55.434;38.520;2023-04-01T12:31:06;7.87;;;3.75;;
47760;SDS011;33524;55.434;38.520;2023-04-01T12:37:02;4.82;;;2.78;;
47760;SDS011;33524;55.434;38.520;2023-04-01T12:42:15;5.22;;;3.00;;
47760;SDS011;33524;55.434;38.520;2023-04-01T13:01:59;6.00;;;3.17;;
47760;SDS011;33524;55.434;38.520;2023-04-01T13:04:56;4.93;;;3.00;;
47760;SDS011;33524;55.434;38.520;2023-04-01T13:16:05;7.75;;;3.80;;
47760;SDS011;33524;55.434;38.520;2023-04-01T13:19:21;5.47;;;3.40;;
47760;SDS011;33524;55.434;38.520;2023-04-01T13:22:11;9.35;;;5.37;;
47760;SDS011;33524;55.434;38.520;2023-04-01T13:24:50;6.53;;;4.20;;
47760;SDS011;33524;55.434;38.520;2023-04-01T13:43:01;5.37;;;3.80;;
47760;SDS011;33524;55.434;38.520;2023-04-01T13:46:41;6.00;;;3.78;;
47760;SDS011;33524;55.434;38.520;2023-04-01T13:48:53;6.18;;;3.90;;
47760;SDS011;33524;55.434;38.520;2023-04-01T13:54:20;9.18;;;5.00;;
47760;SDS011;33524;55.434;38.520;2023-04-01T13:57:34;8.60;;;5.00;;
47760;SDS011;33524;55.434;38.520;2023-04-01T14:06:16;8.75;;;4.87;;
47760;SDS011;33524;55.434;38.520;2023-04-01T14:11:47;10.23;;;5.72;;
47760;SDS011;33524;55.434;38.520;2023-04-01T14:14:35;6.12;;;3.70;;
47760;SDS011;33524;55.434;38.520;2023-04-01T14:17:27;8.30;;;5.82;;
47760;SDS011;33524;55.434;38.520;2023-04-01T14:28:16;10.60;;;5.32;;
47760;SDS011;33524;55.434;38.520;2023-04-01T14:31:04;11.27;;;6.35;;
47760;SDS011;33524;55.434;38.520;2023-04-01T14:39:20;9.10;;;5.53;;
47760;SDS011;33524;55.434;38.520;2023-04-01T14:47:28;12.32;;;7.00;;
47760;SDS011;33524;55.434;38.520;2023-04-01T14:50:14;12.98;;;9.13;;
47760;SDS011;33524;55.434;38.520;2023-04-01T14:53:11;8.88;;;5.10;;
47760;SDS011;33524;55.434;38.520;2023-04-01T14:55:48;10.40;;;7.05;;
47760;SDS011;33524;55.434;38.520;2023-04-01T14:58:18;10.68;;;6.37;;
47760;SDS011;33524;55.434;38.520;2023-04-01T15:04:02;12.07;;;7.15;;
47760;SDS011;33524;55.434;38.520;2023-04-01T15:07:29;11.93;;;6.53;;
47760;SDS011;33524;55.434;38.520;2023-04-01T15:10:07;10.13;;;5.68;;
47760;SDS011;33524;55.434;38.520;2023-04-01T15:14:05;10.07;;;6.43;;
47760;SDS011;33524;55.434;38.520;2023-04-01T15:16:08;11.00;;;6.47;;
47760;SDS011;33524;55.434;38.520;2023-04-01T15:22:00;8.10;;;4.65;;
47760;SDS011;33524;55.434;38.520;2023-04-01T15:27:51;12.77;;;5.50;;
47760;SDS011;33524;55.434;38.520;2023-04-01T15:30:38;9.05;;;6.00;;
47760;SDS011;33524;55.434;38.520;2023-04-01T15:33:37;12.35;;;6.62;;
47760;SDS011;33524;55.434;38.520;2023-04-01T15:39:13;10.63;;;5.68;;
47760;SDS011;33524;55.434;38.520;2023-04-01T15:44:55;7.93;;;5.28;;
47760;SDS011;33524;55.434;38.520;2023-04-01T15:53:28;8.75;;;5.53;;
47760;SDS011;33524;55.434;38.520;2023-04-01T15:57:10;8.95;;;4.53;;
47760;SDS011;33524;55.434;38.520;2023-04-01T15:59:16;8.10;;;4.72;;
47760;SDS011;33524;55.434;38.520;2023-04-01T16:05:07;10.57;;;5.35;;
47760;SDS011;33524;55.434;38.520;2023-04-01T16:11:12;7.85;;;4.87;;
47760;SDS011;33524;55.434;38.520;2023-04-01T16:13:54;8.77;;;5.37;;
47760;SDS011;33524;55.434;38.520;2023-04-01T16:17:00;7.65;;;4.18;;
47760;SDS011;33524;55.434;38.520;2023-04-01T16:19:49;21.50;;;11.57;;
47760;SDS011;33524;55.434;38.520;2023-04-01T16:22:24;11.35;;;5.95;;
47760;SDS011;33524;55.434;38.520;2023-04-01T16:25:07;12.93;;;7.20;;
47760;SDS011;33524;55.434;38.520;2023-04-01T16:31:00;9.43;;;6.30;;
47760;SDS011;33524;55.434;38.520;2023-04-01T16:33:46;9.30;;;5.87;;
47760;SDS011;33524;55.434;38.520;2023-04-01T16:36:22;11.02;;;5.90;;
47760;SDS011;33524;55.434;38.520;2023-04-01T16:45:25;11.75;;;6.07;;
47760;SDS011;33524;55.434;38.520;2023-04-01T16:48:06;7.85;;;4.40;;
47760;SDS011;33524;55.434;38.520;2023-04-01T16:51:13;9.02;;;5.12;;
47760;SDS011;33524;55.434;38.520;2023-04-01T16:53:36;10.27;;;6.85;;
47760;SDS011;33524;55.434;38.520;2023-04-01T16:56:27;12.82;;;6.80;;
47760;SDS011;33524;55.434;38.520;2023-04-01T16:59:06;11.10;;;6.72;;
47760;SDS011;33524;55.434;38.520;2023-04-01T17:01:44;8.57;;;5.57;;
47760;SDS011;33524;55.434;38.520;2023-04-01T17:04:23;8.45;;;4.80;;
47760;SDS011;33524;55.434;38.520;2023-04-01T17:07:10;6.55;;;4.43;;
47760;SDS011;33524;55.434;38.520;2023-04-01T17:10:08;9.50;;;6.10;;
47760;SDS011;33524;55.434;38.520;2023-04-01T17:14:06;10.23;;;4.85;;
47760;SDS011;33524;55.434;38.520;2023-04-01T17:16:10;8.60;;;3.60;;
47760;SDS011;33524;55.434;38.520;2023-04-01T17:19:00;10.63;;;6.43;;
47760;SDS011;33524;55.434;38.520;2023-04-01T17:28:12;9.23;;;5.55;;
47760;SDS011;33524;55.434;38.520;2023-04-01T17:31:10;9.93;;;5.15;;
47760;SDS011;33524;55.434;38.520;2023-04-01T17:34:09;23.38;;;10.70;;
47760;SDS011;33524;55.434;38.520;2023-04-01T17:36:52;18.87;;;9.25;;
47760;SDS011;33524;55.434;38.520;2023-04-01T17:39:32;11.85;;;7.75;;
47760;SDS011;33524;55.434;38.520;2023-04-01T17:42:16;9.57;;;5.37;;
47760;SDS011;33524;55.434;38.520;2023-04-01T17:45:24;10.35;;;6.35;;
47760;SDS011;33524;55.434;38.520;2023-04-01T17:51:13;10.77;;;5.95;;
47760;SDS011;33524;55.434;38.520;2023-04-01T17:54:10;12.73;;;6.82;;
47760;SDS011;33524;55.434;38.520;2023-04-01T17:57:25;13.25;;;6.47;;
47760;SDS011;33524;55.434;38.520;2023-04-01T18:00:15;11.18;;;6.07;;
47760;SDS011;33524;55.434;38.520;2023-04-01T18:03:06;7.65;;;3.95;;
47760;SDS011;33524;55.434;38.520;2023-04-01T18:06:19;14.48;;;5.65;;
47760;SDS011;33524;55.434;38.520;2023-04-01T18:12:28;11.12;;;6.62;;
47760;SDS011;33524;55.434;38.520;2023-04-01T18:15:31;13.68;;;6.93;;
47760;SDS011;33524;55.434;38.520;2023-04-01T18:18:11;4.50;;;2.90;;
47760;SDS011;33524;55.434;38.520;2023-04-01T18:21:07;8.18;;;5.18;;
47760;SDS011;33524;55.434;38.520;2023-04-01T18:24:02;9.68;;;5.53;;
47760;SDS011;33524;55.434;38.520;2023-04-01T18:26:42;7.85;;;4.55;;
47760;SDS011;33524;55.434;38.520;2023-04-01T18:29:26;8.43;;;4.45;;
47760;SDS011;33524;55.434;38.520;2023-04-01T18:32:08;5.87;;;4.12;;
47760;SDS011;33524;55.434;38.520;2023-04-01T18:34:55;15.35;;;8.60;;
47760;SDS011;33524;55.434;38.520;2023-04-01T19:00:38;16.27;;;8.30;;
47760;SDS011;33524;55.434;38.520;2023-04-01T19:03:21;11.77;;;6.80;;
47760;SDS011;33524;55.434;38.520;2023-04-01T19:06:00;16.00;;;8.38;;
47760;SDS011;33524;55.434;38.520;2023-04-01T19:08:40;17.02;;;8.13;;
47760;SDS011;33524;55.434;38.520;2023-04-01T19:11:23;16.65;;;9.52;;
47760;SDS011;33524;55.434;38.520;2023-04-01T19:14:15;16.20;;;8.75;;
47760;SDS011;33524;55.434;38.520;2023-04-01T19:16:59;14.40;;;7.80;;
47760;SDS011;33524;55.434;38.520;2023-04-01T19:22:52;16.58;;;8.93;;
47760;SDS011;33524;55.434;38.520;2023-04-01T19:25:50;14.02;;;8.32;;
47760;SDS011;33524;55.434;38.520;2023-04-01T19:36:40;12.90;;;8.07;;
47760;SDS011;33524;55.434;38.520;2023-04-01T19:39:37;14.68;;;8.02;;
47760;SDS011;33524;55.434;38.520;2023-04-01T19:42:25;16.37;;;7.97;;
47760;SDS011;33524;55.434;38.520;2023-04-01T19:48:38;15.32;;;8.70;;
47760;SDS011;33524;55.434;38.520;2023-04-01T19:50:53;17.70;;;8.77;;
47760;SDS011;33524;55.434;38.520;2023-04-01T19:53:28;16.87;;;8.80;;
47760;SDS011;33524;55.434;38.520;2023-04-01T19:56:20;15.63;;;8.90;;
47760;SDS011;33524;55.434;38.520;2023-04-01T19:58:54;13.98;;;7.78;;
47760;SDS011;33524;55.434;38.520;2023-04-01T20:01:41;17.85;;;10.18;;
47760;SDS011;33524;55.434;38.520;2023-04-01T20:04:13;14.07;;;8.88;;
47760;SDS011;33524;55.434;38.520;2023-04-01T20:14:50;18.48;;;8.38;;
47760;SDS011;33524;55.434;38.520;2023-04-01T20:17:41;18.40;;;10.18;;
47760;SDS011;33524;55.434;38.520;2023-04-01T20:20:21;19.87;;;9.13;;
47760;SDS011;33524;55.434;38.520;2023-04-01T20:23:04;17.75;;;9.38;;
47760;SDS011;33524;55.434;38.520;2023-04-01T20:25:55;17.27;;;9.57;;
47760;SDS011;33524;55.434;38.520;2023-04-01T20:28:42;17.45;;;9.60;;
47760;SDS011;33524;55.434;38.520;2023-04-01T20:36:57;19.50;;;10.10;;
47760;SDS011;33524;55.434;38.520;2023-04-01T20:50:28;16.50;;;9.20;;
47760;SDS011;33524;55.434;38.520;2023-04-01T20:53:04;18.90;;;10.50;;
47760;SDS011;33524;55.434;38.520;2023-04-01T20:55:53;21.20;;;11.32;;
47760;SDS011;33524;55.434;38.520;2023-04-01T20:59:40;19.05;;;10.93;;
47760;SDS011;33524;55.434;38.520;2023-04-01T21:01:43;20.37;;;10.40;;
47760;SDS011;33524;55.434;38.520;2023-04-01T21:07:04;20.35;;;9.63;;
47760;SDS011;33524;55.434;38.520;2023-04-01T21:20:44;16.50;;;9.65;;
47760;SDS011;33524;55.434;38.520;2023-04-01T21:26:40;17.35;;;9.07;;
47760;SDS011;33524;55.434;38.520;2023-04-01T21:29:40;22.45;;;9.77;;
47760;SDS011;33524;55.434;38.520;2023-04-01T21:41:37;15.43;;;9.02;;
47760;SDS011;33524;55.434;38.520;2023-04-01T21:47:00;16.60;;;9.13;;
47760;SDS011;33524;55.434;38.520;2023-04-01T22:07:06;14.82;;;9.10;;
47760;SDS011;33524;55.434;38.520;2023-04-01T22:15:19;18.60;;;8.90;;
47760;SDS011;33524;55.434;38.520;2023-04-01T22:18:07;14.27;;;7.62;;
47760;SDS011;33524;55.434;38.520;2023-04-01T22:20:53;18.00;;;9.35;;
47760;SDS011;33524;55.434;38.520;2023-04-01T22:23:35;18.15;;;8.98;;
47760;SDS011;33524;55.434;38.520;2023-04-01T22:31:54;17.35;;;9.10;;
47760;SDS011;33524;55.434;38.520;2023-04-01T22:34:37;17.10;;;9.23;;
47760;SDS011;33524;55.434;38.520;2023-04-01T22:40:21;19.05;;;8.60;;
47760;SDS011;33524;55.434;38.520;2023-04-01T22:45:40;17.62;;;9.80;;
47760;SDS011;33524;55.434;38.520;2023-04-01T22:48:20;18.42;;;9.07;;
47760;SDS011;33524;55.434;38.520;2023-04-01T22:53:47;20.58;;;10.73;;
47760;SDS011;33524;55.434;38.520;2023-04-01T22:56:27;21.12;;;10.82;;
47760;SDS011;33524;55.434;38.520;2023-04-01T23:02:03;20.27;;;9.75;;
47760;SDS011;33524;55.434;38.520;2023-04-01T23:05:05;14.65;;;8.77;;
47760;SDS011;33524;55.434;38.520;2023-04-01T23:12:58;27.15;;;10.90;;
47760;SDS011;33524;55.434;38.520;2023-04-01T23:15:29;18.67;;;10.35;;
47760;SDS011;33524;55.434;38.520;2023-04-01T23:24:00;19.95;;;11.15;;
47760;SDS011;33524;55.434;38.520;2023-04-01T23:26:55;24.05;;;9.88;;
47760;SDS011;33524;55.434;38.520;2023-04-01T23:29:28;22.62;;;10.00;;
47760;SDS011;33524;55.434;38.520;2023-04-01T23:32:01;24.65;;;12.48;;
47760;SDS011;33524;55.434;38.520;2023-04-01T23:34:31;21.12;;;11.27;;
47760;SDS011;33524;55.434;38.520;2023-04-01T23:37:07;21.62;;;11.55;;
47760;SDS011;33524;55.434;38.520;2023-04-01T23:39:46;21.80;;;10.85;;
47760;SDS011;33524;55.434;38.520;2023-04-01T23:42:19;19.40;;;10.25;;
47760;SDS011;33524;55.434;38.520;2023-04-01T23:44:53;15.60;;;9.13;;